Data for 03/09/2007

Time Sea-Level Adjusted Pressure Absolute Pressure Temperature Relative Humidity Dew Point   
(mb) (inHg) (mb) (inHg) (C) (F) (%) (C) (F)
00:05 1016 30 845 24.95 1.4 34.5 53 -7.3 18.9
00:10 1016 30 845 24.95 1.4 34.5 52 -7.3 18.8
00:15 1016 30 845 24.95 1.3 34.4 52 -7.5 18.4
00:20 1016 30 845 24.95 1.4 34.6 52 -7.4 18.8
00:25 1016 30 845 24.95 1.3 34.4 55 -6.8 19.7
00:30 1016 30 845 24.95 1.1 33.9 55 -7 19.4
00:35 1016 30 845 24.95 0.9 33.7 55 -7.1 19.2
00:40 1016 30 845 24.95 1.2 34.2 53 -7.2 19
00:45 1016 30 845 24.95 1.1 34.1 55 -6.9 19.6
00:50 1016 30 845 24.95 1.1 34.1 55 -7 19.3
00:55 1016 30 845 24.95 1.4 34.6 55 -6.6 20.1
01:00 1016 30 845 24.95 1.1 34.1 55 -7 19.5
01:05 1016 30 845 24.95 1.2 34.2 53 -7.4 18.7
01:10 1016 30 845 24.95 1.4 34.6 54 -6.9 19.6
01:15 1016 30 845 24.95 1.6 34.8 50 -7.7 18.2
01:20 1016 30 845 24.95 2.2 36 49 -7.4 18.6
01:25 1016 30 845 24.95 2.9 37.3 47 -7.2 19.1
01:30 1016 30 845 24.95 3 37.4 52 -6 21.2
01:35 1016 30 845 24.95 1.6 34.9 55 -6.3 20.6
01:40 1016 30 845 24.95 1.3 34.3 56 -6.6 20.2
01:45 1016 30 845 24.95 1.4 34.5 55 -6.7 20
01:50 1016 30 845 24.95 1.3 34.3 58 -6 21.1
01:55 1016 30 845 24.95 1 33.7 59 -6.2 20.9
02:00 1016 30 845 24.95 1 33.8 55 -7 19.5
02:05 1016 30 845 24.95 1.6 34.8 54 -6.7 19.9
02:10 1016 30 845 24.95 1.7 35.1 56 -6.1 21
02:15 1016 30 845 24.95 1.8 35.3 57 -5.9 21.4
02:20 1016 30 845 24.95 2.4 36.3 51 -6.7 19.9
02:25 1016 30 845 24.95 2.4 36.4 51 -6.7 19.9
02:30 1016 30 845 24.95 2.2 36 51 -6.9 19.6
02:35 1016 30 845 24.95 2.4 36.3 51 -6.8 19.8
02:40 1016 30 845 24.95 2.6 36.8 51 -6.6 20.1
02:45 1016 30 845 24.95 3 37.3 50 -6.5 20.2
02:50 1016 30 845 24.95 3.2 37.7 45 -7.7 18.1
02:55 1016 30 845 24.95 3.8 38.9 41 -8.1 17.3
03:00 1016 30 845 24.95 4.1 39.4 40 -8.3 17
03:05 1016 30 845 24.95 4.4 40 35 -9.7 14.6
03:10 1016 30 845 24.95 4.9 40.9 33 -9.9 14.2
03:15 1016 30 845 24.95 5.1 41.1 34 -9.4 15
03:20 1016 30 845 24.95 4.9 40.9 34 -9.7 14.5
03:25 1016 30 845 24.95 5 40.9 33 -10.1 13.9
03:30 1016 30 845 24.95 5.1 41.2 30 -11.1 12
03:35 1016 30 845 24.95 5.4 41.7 30 -10.8 12.5
03:40 1016 30 845 24.95 5.4 41.7 31 -10.4 13.3
03:45 1016 30 845 24.95 5.3 41.5 28 -11.8 10.8
03:50 1016 30 845 24.95 5.6 42.1 27 -11.9 10.6
03:55 1016 30 845 24.95 5.7 42.3 29 -11.1 12
04:00 1016 30 845 24.95 5.7 42.2 29 -11 12.1
04:05 1016 30 845 24.95 5.6 42.1 28 -11.4 11.4
04:10 1016 30 846 24.98 5.4 41.7 34 -9.2 15.5
04:15 1017 30.03 846 24.98 4.4 40 41 -7.7 18.1
04:20 1017 30.03 846 24.98 3.6 38.5 46 -7.1 19.3
04:25 1017 30.03 846 24.98 3.1 37.6 48 -6.8 19.7
04:30 1017 30.03 846 24.98 2.9 37.3 50 -6.6 20.1
04:35 1017 30.03 846 24.98 2.8 37 50 -6.7 19.9
04:40 1017 30.03 846 24.98 2.8 37 50 -6.6 20.2
04:45 1017 30.03 846 24.98 2.7 36.8 51 -6.5 20.3
04:50 1017 30.03 846 24.98 2.6 36.7 51 -6.5 20.4
04:55 1017 30.03 846 24.98 2.5 36.6 52 -6.4 20.4
05:00 1017 30.03 846 24.98 2.5 36.6 51 -6.5 20.2
05:05 1017 30.03 846 24.98 2.6 36.6 51 -6.5 20.4
05:10 1017 30.03 846 24.98 2.6 36.6 51 -6.5 20.3
05:15 1017 30.03 846 24.98 2.6 36.6 52 -6.4 20.5
05:20 1017 30.03 846 24.98 2.5 36.5 51 -6.6 20.2
05:25 1017 30.03 846 24.98 2.5 36.4 50 -6.9 19.5
05:30 1017 30.03 846 24.98 2.4 36.3 51 -6.8 19.7
05:35 1017 30.03 846 24.98 2.3 36.1 50 -7.1 19.2
05:40 1017 30.03 846 24.98 2.3 36.1 51 -6.9 19.6
05:45 1017 30.03 846 24.98 2.4 36.2 53 -6.2 20.8
05:50 1017 30.03 846 24.98 2 35.5 53 -6.7 19.9
05:55 1017 30.03 846 24.98 2 35.6 52 -7 19.4
06:00 1017 30.03 846 24.98 1.9 35.5 52 -6.9 19.7
06:05 1017 30.03 846 24.98 2 35.6 52 -6.9 19.5
06:10 1017 30.03 846 24.98 2.3 36.1 50 -7.1 19.3
06:15 1017 30.03 846 24.98 2.5 36.4 49 -7.2 19
06:20 1017 30.03 846 24.98 2.1 35.8 53 -6.4 20.5
06:25 1017 30.03 846 24.98 1.8 35.2 53 -6.9 19.6
06:30 1017 30.03 846 24.98 1.9 35.5 51 -7.3 18.9
06:35 1017 30.03 846 24.98 2.1 35.9 49 -7.4 18.6
06:40 1017 30.03 846 24.98 2.2 35.9 47 -7.9 17.8
06:45 1017 30.03 846 24.98 2.3 36.1 47 -7.8 17.9
06:50 1017 30.03 846 24.98 2.4 36.4 47 -7.9 17.9
06:55 1017 30.03 847 25.01 2.5 36.5 48 -7.4 18.7
07:00 1017 30.03 847 25.01 2.6 36.8 45 -8.2 17.3
07:05 1017 30.03 847 25.01 2.9 37.2 44 -8.1 17.4
07:10 1017 30.03 847 25.01 3.1 37.6 44 -8.1 17.4
07:15 1017 30.03 847 25.01 3 37.4 48 -6.9 19.5
07:20 1018 30.06 847 25.01 2.5 36.5 49 -7 19.3
07:25 1018 30.06 847 25.01 2.3 36.1 47 -7.8 17.9
07:30 1018 30.06 847 25.01 2.6 36.6 47 -7.5 18.4
07:35 1017 30.03 847 25.01 3.1 37.6 43 -8.2 17.2
07:40 1017 30.03 847 25.01 3.3 38 44 -7.7 18.2
07:45 1018 30.06 847 25.01 3.4 38.1 48 -6.6 20.2
07:50 1018 30.06 847 25.01 2.5 36.5 52 -6.3 20.7
07:55 1018 30.06 847 25.01 2.1 35.8 49 -7.4 18.6
08:00 1018 30.06 847 25.01 2.3 36.1 51 -6.8 19.8
08:05 1018 30.06 847 25.01 2.3 36.2 51 -6.8 19.8
08:10 1018 30.06 847 25.01 2.5 36.4 49 -7.1 19.1
08:15 1018 30.06 847 25.01 2.8 37 49 -6.8 19.7
08:20 1018 30.06 847 25.01 3 37.4 51 -6.3 20.7
08:25 1018 30.06 847 25.01 3 37.4 48 -6.9 19.6
08:30 1018 30.06 847 25.01 3 37.4 50 -6.6 20.2
08:35 1018 30.06 847 25.01 3 37.5 47 -7.2 19
08:40 1018 30.06 847 25.01 3 37.4 46 -7.4 18.7
08:45 1018 30.06 847 25.01 3.5 38.2 45 -7.4 18.7
08:50 1018 30.06 847 25.01 3.5 38.4 46 -7 19.3
08:55 1018 30.06 847 25.01 3.7 38.6 43 -7.8 18
09:00 1018 30.06 847 25.01 4 39.2 42 -7.7 18.1
09:05 1018 30.06 847 25.01 4.3 39.8 41 -7.9 17.8
09:10 1018 30.06 847 25.01 4.9 40.9 39 -7.8 17.9
09:15 1018 30.06 847 25.01 5.4 41.6 38 -7.9 17.8
09:20 1018 30.06 847 25.01 5.7 42.3 37 -7.9 17.8
09:25 1018 30.06 847 25.01 5.8 42.5 37 -7.6 18.3
09:30 1018 30.06 847 25.01 5.9 42.6 38 -7.5 18.5
09:35 1018 30.06 847 25.01 5.6 42 39 -7.2 19
09:40 1018 30.06 847 25.01 5.4 41.6 39 -7.5 18.4
09:45 1018 30.06 847 25.01 5.2 41.4 39 -7.8 18
09:50 1018 30.06 847 25.01 5.3 41.5 39 -7.7 18.1
09:55 1018 30.06 847 25.01 5.2 41.3 40 -7.3 18.8
10:00 1018 30.06 847 25.01 5.5 42 38 -7.6 18.4
10:05 1018 30.06 847 25.01 5.9 42.6 37 -7.6 18.4
10:10 1018 30.06 847 25.01 5.8 42.5 38 -7.5 18.5
10:15 1018 30.06 847 25.01 6 42.8 37 -7.6 18.4
10:20 1018 30.06 847 25.01 6.2 43.1 36 -7.8 18
10:25 1018 30.06 847 25.01 5.9 42.6 37 -7.9 17.8
10:30 1018 30.06 847 25.01 6.8 44.2 35 -7.8 18
10:35 1018 30.06 847 25.01 7.4 45.4 34 -7.6 18.4
10:40 1018 30.06 847 25.01 8.1 46.5 32 -7.5 18.5
10:45 1018 30.06 847 25.01 7.9 46.2 35 -6.6 20.1
10:50 1018 30.06 847 25.01 7.3 45.1 34 -7.6 18.3
10:55 1018 30.06 847 25.01 7.7 45.8 34 -7.4 18.8
11:00 1018 30.06 847 25.01 8 46.4 34 -7 19.4
11:05 1018 30.06 847 25.01 7.4 45.3 34 -7.5 18.4
11:10 1018 30.06 847 25.01 8.1 46.5 32 -7.8 17.9
11:15 1018 30.06 847 25.01 8.5 47.3 31 -7.5 18.5
11:20 1018 30.06 847 25.01 8.9 48 32 -7 19.4
11:25 1018 30.06 847 25.01 8.7 47.7 32 -7.1 19.2
11:30 1018 30.06 847 25.01 8.6 47.4 33 -6.7 19.9
11:35 1018 30.06 847 25.01 8.6 47.5 33 -6.6 20.1
11:40 1018 30.06 847 25.01 8.5 47.3 33 -7 19.4
11:45 1018 30.06 847 25.01 7.8 46.1 34 -6.9 19.6
11:50 1018 30.06 847 25.01 7.3 45.2 36 -6.9 19.6
11:55 1018 30.06 847 25.01 7.8 46.1 35 -6.8 19.8
12:00 1017 30.03 847 25.01 7.6 45.6 35 -6.9 19.7
12:05 1018 30.06 847 25.01 7.6 45.7 35 -6.9 19.6
12:10 1017 30.03 847 25.01 7.6 45.7 34 -7.2 19.1
12:15 1017 30.03 847 25.01 8.9 48.1 32 -6.7 19.9
12:20 1017 30.03 847 25.01 9.2 48.6 31 -7 19.4
12:25 1017 30.03 846 24.98 9.5 49.1 28 -8 17.6
12:30 1017 30.03 846 24.98 10.1 50.1 29 -7.3 18.9
12:35 1017 30.03 846 24.98 10.5 50.9 29 -6.8 19.8
12:40 1017 30.03 846 24.98 9.8 49.7 30 -6.9 19.6
12:45 1017 30.03 846 24.98 9.2 48.5 32 -6.8 19.7
12:50 1017 30.03 846 24.98 9.1 48.3 32 -6.6 20.1
12:55 1017 30.03 846 24.98 8.7 47.6 34 -6.5 20.4
13:00 1017 30.03 846 24.98 9.4 48.9 31 -6.7 19.9
13:05 1017 30.03 846 24.98 7.9 46.2 34 -6.8 19.7
13:10 1017 30.03 846 24.98 7.8 46.1 32 -7.8 18
13:15 1017 30.03 846 24.98 8.2 46.7 33 -7.1 19.2
13:20 1017 30.03 846 24.98 7.5 45.5 34 -7.4 18.7
13:25 1017 30.03 846 24.98 8.2 46.8 32 -7.5 18.5
13:30 1017 30.03 846 24.98 8 46.4 32 -7.7 18.1
13:35 1017 30.03 846 24.98 9.5 49 30 -7.3 18.9
13:40 1017 30.03 846 24.98 10.3 50.5 28 -7.3 18.9
13:45 1017 30.03 846 24.98 10.2 50.4 29 -6.9 19.6
13:50 1017 30.03 846 24.98 10.4 50.8 29 -7 19.4
13:55 1017 30.03 846 24.98 11.2 52.1 27 -7.1 19.3
14:00 1016 30 846 24.98 11.2 52.1 28 -6.6 20.1
14:05 1016 30 846 24.98 11 51.7 29 -6.5 20.3
14:10 1016 30 846 24.98 10.3 50.6 30 -6.6 20.1
14:15 1016 30 846 24.98 9.8 49.6 31 -6.7 19.9
14:20 1016 30 846 24.98 9.6 49.3 29 -7.5 18.4
14:25 1016 30 846 24.98 9.5 49 30 -7.1 19.2
14:30 1017 30.03 846 24.98 9 48.2 30 -7.9 17.8
14:35 1017 30.03 846 24.98 8.6 47.5 30 -7.8 18
14:40 1016 30 846 24.98 9 48.2 30 -7.4 18.6
14:45 1016 30 846 24.98 9.6 49.2 29 -7.4 18.7
14:50 1016 30 846 24.98 9.8 49.6 29 -7.5 18.4
14:55 1016 30 846 24.98 9.5 49.1 29 -7.5 18.5
15:00 1016 30 846 24.98 9.6 49.4 29 -7.6 18.4
15:05 1016 30 846 24.98 9.4 49 30 -7.3 18.9
15:10 1016 30 846 24.98 10 50 28 -7.6 18.3
15:15 1016 30 846 24.98 10.7 51.3 27 -7.6 18.4
15:20 1016 30 846 24.98 10.5 50.9 28 -7.1 19.2
15:25 1016 30 846 24.98 10.1 50.2 29 -7 19.4
15:30 1016 30 846 24.98 11.3 52.3 27 -6.8 19.7
15:35 1016 30 846 24.98 11.4 52.5 28 -6.4 20.5
15:40 1016 30 846 24.98 11.5 52.7 29 -5.7 21.8
15:45 1016 30 846 24.98 10.2 50.3 34 -5.1 22.9
15:50 1016 30 845 24.95 9.2 48.5 35 -5.5 22.1
15:55 1016 30 845 24.95 8.3 47 39 -4.7 23.5
16:00 1016 30 845 24.95 7.4 45.2 39 -5.6 22
16:05 1016 30 845 24.95 7.3 45.2 37 -6.4 20.5
16:10 1016 30 845 24.95 7.9 46.2 35 -6.7 19.9
16:15 1016 30 845 24.95 8.1 46.5 35 -6.4 20.4
16:20 1016 30 845 24.95 8.5 47.3 34 -6.5 20.3
16:25 1016 30 845 24.95 8.8 47.8 33 -6.4 20.4
16:30 1016 30 845 24.95 8.8 47.9 32 -6.8 19.8
16:35 1016 30 845 24.95 8.6 47.5 34 -6.4 20.4
16:40 1016 30 845 24.95 8.7 47.7 33 -6.7 19.9
16:45 1016 30 845 24.95 8.7 47.6 33 -6.9 19.6
16:50 1016 30 845 24.95 8.9 48 31 -7.2 19.1
16:55 1016 30 845 24.95 9.5 49.1 31 -6.6 20.1
17:00 1016 30 845 24.95 9.3 48.7 32 -6.6 20.2
17:05 1016 30 845 24.95 9 48.3 32 -6.6 20
17:10 1016 30 845 24.95 9 48.2 33 -6.4 20.4
17:15 1016 30 845 24.95 8.8 47.9 33 -6.6 20.2
17:20 1016 30 845 24.95 9.4 48.8 30 -7.3 18.9
17:25 1016 30 845 24.95 10 49.9 29 -7.3 18.9
17:30 1016 30 845 24.95 9.7 49.5 30 -7.2 19
17:35 1016 30 845 24.95 9.9 49.8 29 -7.2 19.1
17:40 1016 30 845 24.95 10.3 50.5 29 -7 19.4
17:45 1016 30 845 24.95 10.3 50.5 29 -6.9 19.6
17:50 1016 30 845 24.95 10 50 30 -6.8 19.7
17:55 1016 30 845 24.95 9.7 49.5 31 -6.5 20.3
18:00 1016 30 845 24.95 9.4 48.9 32 -6.6 20.1
18:05 1016 30 845 24.95 9 48.3 32 -6.7 19.9
18:10 1016 30 845 24.95 8.7 47.7 33 -6.7 19.9
18:15 1016 30 845 24.95 8.5 47.3 34 -6.3 20.6
18:20 1016 30 845 24.95 8.3 46.9 34 -6.5 20.3
18:25 1016 30 846 24.98 8.1 46.6 35 -6.3 20.7
18:30 1016 30 846 24.98 7.9 46.1 37 -6 21.3
18:35 1016 30 846 24.98 7.7 45.8 39 -5.5 22
18:40 1016 30 846 24.98 7.2 45 42 -4.8 23.4
18:45 1016 30 846 24.98 5.6 42 48 -4.7 23.5
18:50 1016 30 846 24.98 5 41.1 49 -4.8 23.4
18:55 1017 30.03 846 24.98 4.6 40.4 51 -4.6 23.8
19:00 1017 30.03 846 24.98 4.4 39.9 51 -4.9 23.2
19:05 1017 30.03 846 24.98 4.7 40.4 51 -4.6 23.7
19:10 1017 30.03 846 24.98 5 40.9 48 -5 22.9
19:15 1017 30.03 846 24.98 5.4 41.8 46 -5.3 22.4
19:20 1017 30.03 846 24.98 5.6 42.1 47 -4.8 23.4
19:25 1017 30.03 846 24.98 4.8 40.7 49 -5 23.1
19:30 1017 30.03 846 24.98 4.7 40.5 47 -5.7 21.8
19:35 1017 30.03 846 24.98 4.6 40.2 49 -5.2 22.6
19:40 1017 30.03 846 24.98 4.2 39.6 52 -4.8 23.4
19:45 1017 30.03 846 24.98 4 39.2 53 -4.7 23.6
19:50 1017 30.03 846 24.98 3.9 39 55 -4.4 24
19:55 1017 30.03 846 24.98 3.7 38.6 55 -4.5 23.8
20:00 1017 30.03 846 24.98 3.5 38.4 55 -4.6 23.8
20:05 1017 30.03 846 24.98 3.4 38.2 55 -4.7 23.5
20:10 1017 30.03 846 24.98 3.5 38.2 55 -4.8 23.4
20:15 1017 30.03 846 24.98 3.5 38.3 55 -4.8 23.4
20:20 1017 30.03 846 24.98 3.5 38.3 55 -4.7 23.5
20:25 1017 30.03 846 24.98 3.6 38.4 53 -5.2 22.6
20:30 1017 30.03 846 24.98 3.8 38.8 52 -5.1 22.8
20:35 1017 30.03 846 24.98 3.9 39.1 52 -4.9 23.1
20:40 1017 30.03 846 24.98 3.9 39 52 -5.1 22.8
20:45 1017 30.03 846 24.98 3.8 38.9 52 -5.2 22.6
20:50 1017 30.03 846 24.98 4 39.1 49 -5.8 21.6
20:55 1017 30.03 846 24.98 4.2 39.6 50 -5.4 22.3
21:00 1017 30.03 846 24.98 4 39.1 51 -5.3 22.5
21:05 1017 30.03 846 24.98 4 39.2 52 -5.1 22.8
21:10 1017 30.03 846 24.98 3.6 38.5 54 -4.8 23.3
21:15 1017 30.03 847 25.01 3.2 37.8 55 -5 23
21:20 1017 30.03 847 25.01 3.2 37.7 54 -5.3 22.4
21:25 1017 30.03 847 25.01 3.5 38.3 53 -5.2 22.7
21:30 1017 30.03 847 25.01 3.6 38.4 52 -5.4 22.3
21:35 1017 30.03 847 25.01 3.7 38.7 52 -5.3 22.5
21:40 1017 30.03 847 25.01 3.8 38.9 51 -5.5 22.1
21:45 1018 30.06 847 25.01 4.1 39.3 50 -5.4 22.3
21:50 1018 30.06 847 25.01 4.2 39.5 50 -5.4 22.2
21:55 1018 30.06 847 25.01 4.2 39.6 50 -5.3 22.4
22:00 1018 30.06 847 25.01 4.2 39.5 50 -5.3 22.5
22:05 1018 30.06 847 25.01 4.2 39.5 50 -5.4 22.3
22:10 1018 30.06 847 25.01 4.3 39.8 49 -5.6 22
22:15 1018 30.06 847 25.01 4.5 40.1 48 -5.5 22.2
22:20 1018 30.06 847 25.01 4.6 40.2 49 -5.3 22.4
22:25 1018 30.06 847 25.01 4.4 40 50 -5.1 22.8
22:30 1018 30.06 847 25.01 4.4 39.8 50 -5.2 22.7
22:35 1018 30.06 847 25.01 4.4 39.8 49 -5.4 22.4
22:40 1018 30.06 847 25.01 4.3 39.8 51 -5 23
22:45 1018 30.06 847 25.01 4.4 39.9 49 -5.3 22.5
22:50 1018 30.06 847 25.01 4.3 39.7 49 -5.5 22.1
22:55 1018 30.06 847 25.01 4.3 39.7 49 -5.5 22.2
23:00 1018 30.06 847 25.01 4.4 39.9 51 -4.9 23.2
23:05 1018 30.06 847 25.01 4.1 39.4 52 -5 23
23:10 1018 30.06 847 25.01 4.1 39.3 53 -4.8 23.4
23:15 1018 30.06 847 25.01 4.1 39.3 53 -4.7 23.5
23:20 1018 30.06 847 25.01 4.2 39.6 54 -4.3 24.2
23:25 1018 30.06 847 25.01 4.1 39.4 54 -4.4 24
23:30 1018 30.06 847 25.01 4 39.1 54 -4.4 24
23:35 1018 30.06 847 25.01 3.8 38.8 55 -4.5 23.8
23:40 1018 30.06 847 25.01 3.8 38.9 54 -4.7 23.6
23:45 1018 30.06 847 25.01 3.8 38.9 56 -4.1 24.5
23:50 1018 30.06 847 25.01 3.8 38.8 55 -4.5 23.8
23:55 1018 30.06 847 25.01 3.9 39 55 -4.4 24.1
24:00 1018 30.06 847 25.01 3.9 38.9 55 -4.4 24.1